Time;durP1;ratioP1;P1;durP2;ratioP2;P2;SDS_P1;SDS_P2;PMS_P1;PMS_P2;Temp;Humidity;BMP_temperature;BMP_pressure;BME280_temperature;BME280_humidity;BME280_pressure;Samples;Min_cycle;Max_cycle;Signal;HPM_P1;HPM_P2
2021/08/24 00:00:51;;;;;;;1.73;0.65;;;;;;;34.45;25.65;98088.88;5055290;28;20039;-84
2021/08/24 00:03:18;;;;;;;0.80;0.50;;;;;;;34.40;25.36;98077.44;5058822;28;20506;-84
2021/08/24 00:05:46;;;;;;;0.88;0.50;;;;;;;34.45;25.09;98073.84;5051768;28;20104;-84
2021/08/24 00:08:13;;;;;;;0.80;0.60;;;;;;;34.70;24.92;98075.88;5057577;28;20041;-84
2021/08/24 00:10:44;;;;;;;2.45;0.90;;;;;;;34.88;24.90;98061.22;5054216;28;20041;-84
2021/08/24 00:13:11;;;;;;;;;;;;;;;34.91;25.36;98056.56;5055141;28;20573;-84
2021/08/24 00:15:37;;;;;;;2.15;1.23;;;;;;;35.09;24.77;98062.69;5055417;28;20004;-84
2021/08/24 00:18:04;;;;;;;2.67;0.88;;;;;;;35.04;24.91;98071.19;5053401;28;20554;-84
2021/08/24 00:20:31;;;;;;;1.08;0.82;;;;;;;34.97;24.91;98068.78;5050442;28;20037;-84
2021/08/24 00:23:02;;;;;;;1.23;0.60;;;;;;;34.96;25.04;98070.09;5051763;28;20040;-84
2021/08/24 00:25:29;;;;;;;0.95;0.82;;;;;;;34.84;25.22;98066.41;5047918;28;20052;-83
2021/08/24 00:27:55;;;;;;;3.40;0.60;;;;;;;34.61;25.18;98071.13;5051709;28;20118;-84
2021/08/24 00:30:21;;;;;;;0.65;0.60;;;;;;;34.55;25.44;98070.31;5047335;28;20033;-83
2021/08/24 00:32:47;;;;;;;0.50;0.50;;;;;;;34.50;25.71;98073.09;5054277;28;20538;-84
2021/08/24 00:35:13;;;;;;;0.85;0.50;;;;;;;34.39;25.55;98062.38;5050872;28;20120;-84
2021/08/24 00:37:40;;;;;;;0.73;0.60;;;;;;;34.60;25.45;98065.94;5053046;28;20396;-84
2021/08/24 00:40:09;;;;;;;2.17;0.70;;;;;;;34.77;25.00;98064.00;5053076;28;20036;-84
2021/08/24 00:42:36;;;;;;;0.98;0.60;;;;;;;34.83;25.23;98064.03;5047522;28;20096;-84
2021/08/24 00:45:05;;;;;;;3.03;0.65;;;;;;;34.82;25.38;98057.56;5053784;28;20057;-84
2021/08/24 00:47:33;;;;;;;1.38;0.88;;;;;;;34.21;26.39;98062.75;5061933;28;20055;-84
2021/08/24 00:50:06;;;;;;;1.20;0.60;;;;;;;34.01;26.07;98066.41;5055658;28;20053;-84
2021/08/24 00:52:32;;;;;;;1.00;0.60;;;;;;;34.11;26.00;98069.91;5051581;28;20031;-84
2021/08/24 00:54:58;;;;;;;1.55;0.73;;;;;;;34.44;25.44;98070.22;5051835;28;20029;-84
2021/08/24 00:57:25;;;;;;;0.93;0.50;;;;;;;34.66;25.24;98075.31;5047047;28;20033;-84
2021/08/24 00:59:52;;;;;;;2.10;0.70;;;;;;;34.44;25.55;98063.72;5054780;28;20029;-84
2021/08/24 01:02:21;;;;;;;2.83;1.33;;;;;;;34.04;26.04;98053.25;5053075;28;20036;-84
2021/08/24 01:04:49;;;;;;;1.08;0.77;;;;;;;34.24;26.13;98056.03;5061400;28;20032;-84
2021/08/24 01:07:38;;;;;;;2.13;0.60;;;;;;;34.43;25.66;98057.22;5052658;28;20041;-84
2021/08/24 01:10:39;;;;;;;0.98;0.73;;;;;;;34.26;26.04;98055.53;5055950;28;20403;-83
2021/08/24 01:13:26;;;;;;;1.13;0.73;;;;;;;34.32;25.82;98062.84;5056128;28;20032;-84
2021/08/24 01:16:08;;;;;;;0.65;0.65;;;;;;;34.59;25.41;98070.06;5055531;28;20090;-84
2021/08/24 01:19:01;;;;;;;0.80;0.80;;;;;;;34.65;25.61;98063.16;5058153;28;20040;-83
2021/08/24 01:22:08;;;;;;;2.10;0.88;;;;;;;34.59;25.70;98065.16;5052996;28;20416;-84
2021/08/24 01:24:46;;;;;;;2.53;0.80;;;;;;;34.87;25.39;98061.75;5062097;28;20048;-83
2021/08/24 01:27:22;;;;;;;1.02;0.75;;;;;;;34.84;25.62;98068.47;5050818;28;20073;-84
2021/08/24 01:30:12;;;;;;;0.50;0.50;;;;;;;34.39;26.09;98058.75;5056108;28;20132;-84
2021/08/24 01:33:16;;;;;;;1.63;0.90;;;;;;;34.19;26.14;98056.00;5057175;28;20071;-83
2021/08/24 01:36:27;;;;;;;3.83;0.65;;;;;;;33.93;26.71;98064.50;5061313;28;20029;-84
2021/08/24 01:39:01;;;;;;;;;;;;;;;33.53;27.57;98058.88;5052272;28;20500;-83
2021/08/24 01:41:52;;;;;;;1.25;0.63;;;;;;;33.70;26.83;98057.00;5049373;28;19962;-84
2021/08/24 01:44:21;;;;;;;0.65;0.52;;;;;;;33.83;26.71;98060.25;5038187;28;20037;-84
2021/08/24 01:47:00;;;;;;;0.47;0.47;;;;;;;34.24;25.80;98069.50;5047556;28;20089;-84
2021/08/24 01:49:38;;;;;;;2.85;0.30;;;;;;;34.64;25.62;98072.19;5056889;28;20504;-84
2021/08/24 01:52:11;;;;;;;0.57;0.47;;;;;;;34.92;25.28;98063.81;5061183;28;20481;-83
2021/08/24 01:54:45;;;;;;;0.63;0.50;;;;;;;35.10;25.30;98069.19;5052499;28;20040;-84
2021/08/24 01:57:16;;;;;;;3.22;0.50;;;;;;;35.24;25.12;98062.50;5051454;28;20041;-83
2021/08/24 01:59:59;;;;;;;0.45;0.40;;;;;;;35.31;24.55;98057.06;5056181;28;20029;-83
2021/08/24 02:02:31;;;;;;;1.02;0.60;;;;;;;35.40;24.72;98058.94;5062883;28;20464;-84
2021/08/24 02:05:12;;;;;;;3.03;0.57;;;;;;;35.42;24.83;98050.66;5042672;28;20036;-83
2021/08/24 02:07:39;;;;;;;1.02;0.90;;;;;;;35.33;25.02;98048.00;5057214;28;20037;-84
2021/08/24 02:10:15;;;;;;;2.38;1.38;;;;;;;34.38;26.43;98048.66;5059953;28;20040;-84
2021/08/24 02:12:44;;;;;;;2.80;1.80;;;;;;;33.68;27.15;98048.19;5058332;28;20388;-84
2021/08/24 02:15:11;;;;;;;4.22;1.98;;;;;;;33.20;28.02;98047.81;5063722;28;20404;-84
2021/08/24 02:17:42;;;;;;;4.90;2.08;;;;;;;33.22;28.35;98034.66;5061558;28;20537;-84
2021/08/24 02:20:13;;;;;;;;;;;;;;;32.71;29.00;98037.28;5057120;28;20041;-84
2021/08/24 02:22:42;;;;;;;5.22;2.88;;;;;;;33.08;28.24;98046.09;5062219;28;19921;-83
2021/08/24 02:25:20;;;;;;;2.08;1.85;;;;;;;33.19;28.03;98040.53;5050856;28;20128;-84
2021/08/24 02:28:10;;;;;;;4.97;2.72;;;;;;;33.22;28.09;98048.09;5053356;28;20033;-84
2021/08/24 02:30:42;;;;;;;4.78;2.75;;;;;;;33.38;28.15;98045.47;5049643;28;20512;-84
2021/08/24 02:33:10;;;;;;;3.15;1.90;;;;;;;33.70;27.55;98049.22;5058806;28;20568;-84
2021/08/24 02:35:58;;;;;;;2.58;1.67;;;;;;;34.15;26.66;98046.84;5056933;28;20079;-84
2021/08/24 02:38:28;;;;;;;2.28;1.67;;;;;;;34.44;26.46;98040.91;5057575;28;20523;-83
2021/08/24 02:41:21;;;;;;;3.90;2.53;;;;;;;34.15;26.87;98036.25;5046132;28;20060;-83
2021/08/24 02:44:10;;;;;;;3.20;2.10;;;;;;;34.12;26.81;98037.28;5055323;28;20496;-84
2021/08/24 02:46:40;;;;;;;4.57;2.83;;;;;;;34.23;26.58;98031.66;5062937;28;20464;-84
2021/08/24 02:49:10;;;;;;;2.80;2.30;;;;;;;34.31;26.70;98027.06;5051591;28;20076;-84
2021/08/24 02:51:37;;;;;;;3.83;2.40;;;;;;;34.26;26.56;98036.34;5057709;28;20044;-83
2021/08/24 02:54:19;;;;;;;2.70;2.03;;;;;;;34.45;26.41;98031.06;5061131;28;20138;-83
2021/08/24 02:56:45;;;;;;;4.07;3.22;;;;;;;33.84;27.11;98021.94;5058044;28;20028;-83
2021/08/24 02:59:11;;;;;;;2.47;2.28;;;;;;;33.79;27.27;98028.38;5059785;28;20039;-83
2021/08/24 03:01:38;;;;;;;2.67;2.47;;;;;;;34.09;27.08;98021.19;5054900;28;20033;-84
2021/08/24 03:04:06;;;;;;;3.67;2.38;;;;;;;34.21;26.76;98020.00;5047996;28;20033;-84
2021/08/24 03:06:37;;;;;;;4.25;2.10;;;;;;;34.14;26.90;98017.59;5069265;28;20031;-84
2021/08/24 03:09:04;;;;;;;4.97;2.45;;;;;;;34.08;26.83;98020.38;5063179;28;20037;-84
2021/08/24 03:11:36;;;;;;;3.50;2.55;;;;;;;34.11;27.12;98024.31;5048352;28;20029;-84
2021/08/24 03:14:20;;;;;;;5.00;2.70;;;;;;;34.06;27.32;98020.13;5056786;28;20025;-84
2021/08/24 03:17:23;;;;;;;6.05;4.07;;;;;;;33.80;27.21;98015.66;5057817;28;20033;-84
2021/08/24 03:19:52;;;;;;;7.80;4.45;;;;;;;33.12;28.89;98018.22;5038565;28;20037;-84
2021/08/24 03:22:20;;;;;;;7.15;5.45;;;;;;;32.48;29.56;98016.22;5059662;28;20086;-84
2021/08/24 03:24:46;;;;;;;9.38;4.93;;;;;;;32.35;29.90;98017.84;5053187;28;20033;-84
2021/08/24 03:27:12;;;;;;;7.00;3.85;;;;;;;32.51;29.59;98020.94;5056533;28;20137;-83
2021/08/24 03:29:39;;;;;;;8.13;6.43;;;;;;;32.28;30.18;98026.75;5051948;28;20107;-84
2021/08/24 03:32:06;;;;;;;6.20;4.35;;;;;;;32.43;29.74;98030.34;5061019;28;20087;-83
2021/08/24 03:34:33;;;;;;;7.97;4.90;;;;;;;32.65;29.41;98025.03;5046991;28;20025;-84
2021/08/24 03:36:59;;;;;;;11.68;6.22;;;;;;;32.56;29.67;98030.81;5059380;28;20484;-83
2021/08/24 03:39:26;;;;;;;9.07;5.28;;;;;;;32.97;29.40;98035.34;5056782;28;20056;-84
2021/08/24 03:41:52;;;;;;;10.95;5.72;;;;;;;33.14;28.82;98027.06;5054689;28;20040;-83
2021/08/24 03:44:18;;;;;;;9.45;4.82;;;;;;;33.29;28.99;98034.22;5049824;28;20036;-84
2021/08/24 03:46:44;;;;;;;14.85;7.20;;;;;;;32.72;29.38;98036.00;5057957;28;20064;-83
2021/08/24 03:49:10;;;;;;;8.70;5.53;;;;;;;32.52;30.13;98045.25;5058622;28;20520;-83
2021/08/24 03:51:36;;;;;;;7.53;5.50;;;;;;;32.83;29.77;98043.91;5064958;28;20033;-83
2021/08/24 03:54:02;;;;;;;9.25;5.53;;;;;;;32.67;29.78;98048.84;5056034;28;20071;-84
2021/08/24 03:56:28;;;;;;;10.00;6.25;;;;;;;32.65;29.92;98047.78;5053470;28;20112;-84
2021/08/24 03:58:54;;;;;;;10.68;5.85;;;;;;;32.81;29.95;98050.09;5050266;28;20101;-84
2021/08/24 04:01:20;;;;;;;9.70;5.75;;;;;;;33.17;29.16;98051.66;5052004;28;20041;-83
2021/08/24 04:03:46;;;;;;;9.93;4.85;;;;;;;33.29;29.19;98053.38;5065576;28;20506;-83
2021/08/24 04:06:12;;;;;;;13.20;6.68;;;;;;;33.24;29.12;98057.72;5062250;28;20033;-84
2021/08/24 04:08:39;;;;;;;10.43;7.32;;;;;;;32.67;30.29;98056.59;5054419;28;20087;-84
2021/08/24 04:11:06;;;;;;;10.55;5.78;;;;;;;32.94;29.59;98056.22;5053489;28;20063;-84
2021/08/24 04:13:33;;;;;;;11.05;6.18;;;;;;;33.01;29.60;98058.69;5062196;28;20063;-84
2021/08/24 04:16:03;;;;;;;8.23;5.82;;;;;;;32.84;29.68;98057.63;5053169;28;20032;-84
2021/08/24 04:18:29;;;;;;;8.15;5.13;;;;;;;32.15;30.79;98061.13;5056881;28;20029;-84
2021/08/24 04:20:55;;;;;;;8.43;4.78;;;;;;;32.47;30.76;98067.88;5057258;28;20107;-83
2021/08/24 04:23:23;;;;;;;10.95;6.32;;;;;;;32.23;30.71;98064.38;5049875;28;20393;-83
2021/08/24 04:25:49;;;;;;;7.13;4.00;;;;;;;32.73;29.89;98069.63;5051628;28;20032;-83
2021/08/24 04:28:15;;;;;;;9.48;5.38;;;;;;;32.54;30.65;98071.13;5049187;28;20032;-82
2021/08/24 04:30:41;;;;;;;9.95;6.60;;;;;;;32.19;31.12;98078.78;5054922;28;20067;-84
2021/08/24 04:33:07;;;;;;;9.45;5.32;;;;;;;32.71;30.00;98079.94;5052351;28;20595;-83
2021/08/24 04:35:33;;;;;;;5.72;4.55;;;;;;;32.08;31.27;98079.38;5054341;28;20067;-84
2021/08/24 04:37:59;;;;;;;6.88;4.38;;;;;;;32.30;30.94;98090.31;5051838;28;20029;-84
2021/08/24 04:40:27;;;;;;;6.63;3.78;;;;;;;32.19;31.13;98080.81;5060107;28;20045;-84
2021/08/24 04:42:54;;;;;;;4.65;3.22;;;;;;;32.56;30.30;98093.38;5050771;28;20029;-84
2021/08/24 04:45:20;;;;;;;4.22;2.95;;;;;;;32.31;30.78;98096.78;5052221;28;20091;-84
2021/08/24 04:47:46;;;;;;;3.25;2.05;;;;;;;32.79;29.82;98094.53;5046756;28;20067;-84
2021/08/24 04:50:12;;;;;;;4.60;3.67;;;;;;;32.66;30.22;98092.00;5045681;28;20383;-84
2021/08/24 04:52:38;;;;;;;2.42;1.85;;;;;;;33.07;29.34;98088.00;5049136;28;20440;-84
2021/08/24 04:55:04;;;;;;;3.00;2.25;;;;;;;32.91;29.96;98091.34;5055331;28;20103;-84
2021/08/24 04:57:30;;;;;;;3.75;2.33;;;;;;;33.07;29.74;98090.84;5056043;28;20037;-84
2021/08/24 04:59:56;;;;;;;2.28;2.08;;;;;;;32.57;30.36;98101.44;5057395;28;20064;-85
2021/08/24 05:02:22;;;;;;;1.90;1.63;;;;;;;32.35;30.07;98098.16;5052987;28;20401;-85
2021/08/24 05:04:48;;;;;;;2.55;2.17;;;;;;;32.39;30.52;98109.34;5061191;28;20039;-85
2021/08/24 05:07:14;;;;;;;2.58;2.25;;;;;;;32.44;30.34;98112.28;5058559;28;20041;-86
2021/08/24 05:09:40;;;;;;;2.03;1.60;;;;;;;32.49;30.16;98113.63;5058377;28;20052;-85
2021/08/24 05:12:07;;;;;;;2.30;1.58;;;;;;;32.42;30.35;98114.81;5051436;28;20094;-85
2021/08/24 05:14:33;;;;;;;3.00;2.60;;;;;;;32.67;30.15;98108.56;5055621;28;20036;-85
2021/08/24 05:16:59;;;;;;;2.97;2.13;;;;;;;32.75;30.19;98126.00;5063723;28;20033;-85
2021/08/24 05:19:25;;;;;;;2.20;1.67;;;;;;;32.99;29.47;98118.13;5051462;28;20041;-85
2021/08/24 05:21:52;;;;;;;2.13;1.85;;;;;;;32.86;29.53;98120.50;5062099;28;20404;-84
2021/08/24 05:24:18;;;;;;;2.92;2.63;;;;;;;32.73;29.67;98120.03;5051591;28;20408;-86
2021/08/24 05:26:44;;;;;;;2.22;2.00;;;;;;;32.67;30.35;98124.84;5048870;28;20117;-84
2021/08/24 05:29:13;;;;;;;2.25;2.05;;;;;;;32.83;29.61;98124.34;5043705;28;20129;-83
2021/08/24 05:31:39;;;;;;;2.80;2.47;;;;;;;32.49;30.14;98127.84;5049916;28;20048;-83
2021/08/24 05:34:05;;;;;;;2.47;2.28;;;;;;;32.46;30.37;98123.16;5058718;28;20477;-83
2021/08/24 05:36:31;;;;;;;4.57;3.67;;;;;;;32.01;30.88;98125.19;5054757;28;20104;-83
2021/08/24 05:38:58;;;;;;;4.53;3.53;;;;;;;32.07;30.83;98123.25;5043955;28;20120;-82
2021/08/24 05:41:24;;;;;;;2.30;2.10;;;;;;;32.68;29.81;98130.03;5043791;28;20017;-83
2021/08/24 05:43:50;;;;;;;6.30;3.00;;;;;;;32.28;30.45;98126.22;5041757;28;20045;-84
2021/08/24 05:46:16;;;;;;;3.45;2.65;;;;;;;32.42;30.53;98131.09;5043460;28;20037;-83
2021/08/24 05:48:42;;;;;;;2.60;2.00;;;;;;;32.80;29.56;98125.31;5050382;28;20029;-82
2021/08/24 05:51:11;;;;;;;3.20;2.67;;;;;;;32.79;29.97;98131.50;5053406;28;20465;-82
2021/08/24 05:53:38;;;;;;;4.18;3.55;;;;;;;32.96;29.61;98135.38;5054028;28;20532;-82
2021/08/24 05:56:09;;;;;;;6.35;4.57;;;;;;;32.98;29.47;98132.84;5056899;28;20030;-82
2021/08/24 05:58:35;;;;;;;5.07;4.00;;;;;;;32.64;29.86;98140.06;5043687;28;20033;-82
2021/08/24 06:01:01;;;;;;;5.40;3.50;;;;;;;32.73;29.73;98137.88;5052681;28;20393;-82
2021/08/24 06:03:27;;;;;;;5.65;4.57;;;;;;;32.43;30.36;98144.03;5051524;28;20484;-82
2021/08/24 06:05:53;;;;;;;5.43;3.83;;;;;;;32.47;30.55;98141.78;5058237;28;20037;-83
2021/08/24 06:08:19;;;;;;;6.55;4.55;;;;;;;32.25;31.00;98141.41;5063644;28;20493;-83
2021/08/24 06:10:45;;;;;;;6.45;5.05;;;;;;;31.52;31.86;98139.13;5054565;28;20069;-83
2021/08/24 06:13:11;;;;;;;10.90;5.50;;;;;;;30.77;32.40;98147.69;5060523;28;20029;-83
2021/08/24 06:15:37;;;;;;;5.78;3.45;;;;;;;31.63;31.94;98138.56;5053312;28;20056;-83
2021/08/24 06:18:04;;;;;;;7.97;4.85;;;;;;;31.93;31.18;98146.69;5052778;28;20116;-82
2021/08/24 06:20:31;;;;;;;6.90;4.70;;;;;;;32.32;30.61;98141.78;5054721;28;20474;-83
2021/08/24 06:22:57;;;;;;;7.18;5.10;;;;;;;32.50;30.13;98144.47;5058484;28;20029;-83
2021/08/24 06:25:23;;;;;;;6.10;4.93;;;;;;;32.28;30.67;98149.72;5043322;28;20489;-82
2021/08/24 06:27:50;;;;;;;7.28;4.90;;;;;;;32.12;30.92;98152.25;5050295;28;20040;-82
2021/08/24 06:30:17;;;;;;;8.13;6.07;;;;;;;32.23;30.67;98156.06;5052263;28;20548;-83
2021/08/24 06:32:47;;;;;;;7.70;5.78;;;;;;;32.06;31.20;98157.84;5044602;28;20033;-83
2021/08/24 06:35:16;;;;;;;8.57;6.35;;;;;;;32.10;31.19;98158.41;5051889;28;20119;-84
2021/08/24 06:37:42;;;;;;;8.18;6.28;;;;;;;31.99;31.07;98167.53;5047088;28;20126;-83
2021/08/24 06:40:09;;;;;;;9.23;6.82;;;;;;;31.61;31.48;98161.78;5051947;28;20441;-84
2021/08/24 06:42:48;;;;;;;8.32;5.45;;;;;;;32.09;31.19;98163.31;5048368;28;20052;-83
2021/08/24 06:45:24;;;;;;;11.15;7.45;;;;;;;32.06;31.03;98158.63;5052110;28;20094;-84
2021/08/24 06:47:51;;;;;;;8.98;5.88;;;;;;;31.78;31.11;98162.13;5047811;28;20041;-83
2021/08/24 06:50:17;;;;;;;7.93;5.85;;;;;;;31.42;32.11;98160.28;5048238;28;20048;-83
2021/08/24 06:52:44;;;;;;;11.00;6.38;;;;;;;31.86;31.41;98164.09;5050223;28;20025;-83
2021/08/24 06:55:12;;;;;;;13.88;7.85;;;;;;;31.54;31.83;98158.50;5053234;28;20037;-83
2021/08/24 06:57:39;;;;;;;11.30;8.05;;;;;;;31.41;32.34;98162.34;5054533;28;20033;-83
2021/08/24 07:00:12;;;;;;;9.50;6.05;;;;;;;31.54;32.09;98167.81;5052723;28;20032;-83
2021/08/24 07:02:39;;;;;;;10.30;7.45;;;;;;;31.85;31.45;98168.25;5052631;28;20492;-83
2021/08/24 07:05:07;;;;;;;12.68;7.72;;;;;;;32.05;31.27;98168.41;5050967;28;20043;-82
2021/08/24 07:07:33;;;;;;;9.02;5.85;;;;;;;32.70;30.29;98172.19;5058437;28;20121;-83
2021/08/24 07:09:59;;;;;;;10.32;7.45;;;;;;;32.23;30.90;98170.28;5046068;28;20556;-84
2021/08/24 07:12:25;;;;;;;12.75;7.95;;;;;;;31.60;31.97;98167.94;5054035;28;20132;-83
2021/08/24 07:14:51;;;;;;;11.63;7.50;;;;;;;31.78;32.00;98170.66;5065916;28;20043;-83
2021/08/24 07:17:18;;;;;;;12.38;8.00;;;;;;;31.86;31.94;98175.47;5065504;28;20065;-82
2021/08/24 07:19:44;;;;;;;13.73;7.45;;;;;;;31.63;31.72;98162.06;5051276;28;20033;-83
2021/08/24 07:22:10;;;;;;;11.70;8.30;;;;;;;30.75;33.38;98192.75;5048478;28;20072;-84
2021/08/24 07:24:37;;;;;;;12.13;7.63;;;;;;;28.07;38.38;98189.00;5052186;28;20033;-83
2021/08/24 07:27:03;;;;;;;9.18;6.10;;;;;;;27.04;39.74;98193.69;5049640;28;20043;-82
2021/08/24 07:29:29;;;;;;;18.88;4.93;;;;;;;26.49;41.92;98201.38;5053203;28;20108;-82
2021/08/24 07:31:55;;;;;;;5.25;3.55;;;;;;;28.28;37.64;98198.72;5053791;28;20040;-82
2021/08/24 07:34:21;;;;;;;3.70;3.00;;;;;;;27.68;38.46;98203.69;5053425;28;20040;-82
2021/08/24 07:36:47;;;;;;;3.63;1.98;;;;;;;26.53;40.53;98213.34;5048248;28;20033;-82
2021/08/24 07:39:13;;;;;;;1.60;1.50;;;;;;;25.57;43.21;98219.22;5049244;28;20053;-82
2021/08/24 07:41:39;;;;;;;1.65;1.33;;;;;;;26.13;42.08;98209.28;5049273;28;20404;-82
2021/08/24 07:44:05;;;;;;;1.38;1.27;;;;;;;26.81;41.45;98206.09;5049624;28;20079;-83
2021/08/24 07:46:32;;;;;;;1.25;0.95;;;;;;;27.92;38.67;98202.00;5052017;28;20044;-83
2021/08/24 07:48:58;;;;;;;0.80;0.70;;;;;;;29.24;36.13;98211.50;5054150;28;20075;-83
2021/08/24 07:51:25;;;;;;;0.70;0.70;;;;;;;30.04;35.12;98217.03;5050347;28;20043;-84
2021/08/24 07:53:51;;;;;;;1.20;0.93;;;;;;;28.95;36.38;98222.38;5038180;28;20033;-84
2021/08/24 07:56:20;;;;;;;0.90;0.63;;;;;;;28.08;39.29;98218.78;5048993;28;20545;-83
2021/08/24 07:58:46;;;;;;;1.98;0.60;;;;;;;27.36;40.43;98227.28;5052006;28;20522;-83
2021/08/24 08:01:12;;;;;;;0.50;0.50;;;;;;;27.01;40.67;98234.03;5053381;28;20041;-84
2021/08/24 08:03:38;;;;;;;0.60;0.60;;;;;;;26.59;42.08;98228.44;5049341;28;20156;-84
2021/08/24 08:06:05;;;;;;;0.40;0.40;;;;;;;26.55;42.14;98232.59;5041872;28;20036;-84
2021/08/24 08:08:32;;;;;;;0.30;0.30;;;;;;;26.02;43.13;98239.72;5051183;28;20094;-83
2021/08/24 08:10:58;;;;;;;0.70;0.38;;;;;;;26.38;42.45;98237.53;5052052;28;20087;-84
2021/08/24 08:13:25;;;;;;;0.45;0.40;;;;;;;27.99;39.22;98239.25;5051755;28;20108;-85
2021/08/24 08:15:52;;;;;;;0.40;0.40;;;;;;;29.51;36.20;98229.81;5051947;28;20388;-84
2021/08/24 08:18:18;;;;;;;1.00;0.30;;;;;;;27.85;38.21;98233.28;5045941;28;20485;-84
2021/08/24 08:20:44;;;;;;;0.30;0.30;;;;;;;26.51;41.90;98243.97;5039313;28;20047;-85
2021/08/24 08:23:13;;;;;;;0.20;0.20;;;;;;;25.59;43.27;98240.06;5055082;28;20037;-83
2021/08/24 08:25:40;;;;;;;0.50;0.20;;;;;;;26.17;42.23;98251.41;5054545;28;20037;-84
2021/08/24 08:28:07;;;;;;;0.50;0.30;;;;;;;27.24;39.73;98256.25;5050435;28;20111;-83
2021/08/24 08:30:34;;;;;;;0.30;0.20;;;;;;;26.88;40.37;98261.44;5040563;28;20044;-84
2021/08/24 08:33:03;;;;;;;0.22;0.22;;;;;;;27.16;39.30;98263.38;5036802;28;20022;-83
2021/08/24 08:35:30;;;;;;;0.28;0.20;;;;;;;26.63;39.74;98267.75;5049613;28;20544;-85
2021/08/24 08:37:56;;;;;;;0.20;0.20;;;;;;;25.83;41.92;98275.19;5046173;28;20566;-84
2021/08/24 08:40:51;;;;;;;0.20;0.20;;;;;;;26.49;40.14;98282.28;5065346;28;20036;-82
2021/08/24 08:43:32;;;;;;;0.10;0.10;;;;;;;25.95;40.90;98287.75;5043367;28;20057;-82
2021/08/24 08:46:18;;;;;;;0.10;0.10;;;;;;;26.66;39.62;98293.03;5036795;28;20037;-83
2021/08/24 08:48:52;;;;;;;0.13;0.13;;;;;;;26.51;39.23;98300.28;5046816;28;20059;-83
2021/08/24 08:51:46;;;;;;;1.17;0.30;;;;;;;26.07;40.45;98301.88;5040774;28;20056;-82
2021/08/24 08:54:37;;;;;;;0.55;0.28;;;;;;;25.57;40.91;98295.94;5038874;28;20045;-82
2021/08/24 08:57:12;;;;;;;0.20;0.10;;;;;;;25.42;41.53;98303.09;5040339;28;20098;-82
2021/08/24 09:00:02;;;;;;;0.52;0.25;;;;;;;24.90;42.85;98307.94;5044994;28;20508;-84
2021/08/24 09:02:40;;;;;;;0.38;0.10;;;;;;;24.22;44.37;98314.09;5047072;28;20033;-84
2021/08/24 09:05:07;;;;;;;0.25;0.10;;;;;;;24.22;44.89;98307.66;5053907;28;20389;-83
2021/08/24 09:07:45;;;;;;;0.20;0.10;;;;;;;24.49;43.93;98309.13;5054114;28;20053;-87
2021/08/24 09:10:19;;;;;;;0.43;0.20;;;;;;;23.80;45.44;98306.41;5044350;28;20492;-87
2021/08/24 09:13:00;;;;;;;0.30;0.30;;;;;;;24.51;44.13;98309.50;5055431;28;20021;-88
2021/08/24 09:16:01;;;;;;;0.40;0.20;;;;;;;23.83;45.75;98311.94;5054959;28;20122;-87
2021/08/24 09:18:59;;;;;;;0.20;0.20;;;;;;;23.30;46.20;98318.38;5055034;28;20053;-87
2021/08/24 09:21:29;;;;;;;0.32;0.25;;;;;;;23.09;46.91;98320.69;5055932;28;20064;-86
2021/08/24 09:23:58;;;;;;;0.30;0.30;;;;;;;22.72;47.43;98329.19;5055467;28;20079;-86
2021/08/24 09:27:02;;;;;;;0.52;0.25;;;;;;;22.29;49.15;98332.44;5053637;28;20037;-88
2021/08/24 09:29:37;;;;;;;0.45;0.20;;;;;;;22.61;48.12;98332.91;5056093;28;20108;-87
2021/08/24 09:32:09;;;;;;;0.40;0.20;;;;;;;23.43;46.07;98338.25;5049115;28;20432;-87
2021/08/24 09:34:44;;;;;;;0.30;0.30;;;;;;;24.01;44.11;98334.84;5056814;28;20041;-88
2021/08/24 09:37:19;;;;;;;0.30;0.30;;;;;;;24.24;43.78;98327.66;5049153;28;20028;-86
2021/08/24 09:39:52;;;;;;;0.28;0.28;;;;;;;23.48;44.89;98326.53;5054400;28;20032;-87
2021/08/24 09:42:46;;;;;;;0.20;0.20;;;;;;;23.41;45.79;98335.03;5042922;28;20045;-87
2021/08/24 09:45:20;;;;;;;0.28;0.28;;;;;;;24.64;42.83;98337.72;5036073;28;20385;-86
2021/08/24 09:47:55;;;;;;;0.25;0.20;;;;;;;24.18;44.35;98351.84;5048131;28;20041;-86
2021/08/24 09:50:26;;;;;;;0.20;0.20;;;;;;;25.74;40.71;98347.38;5049695;28;20053;-86
2021/08/24 09:52:52;;;;;;;0.20;0.20;;;;;;;25.47;40.99;98349.59;5053073;28;20106;-86
2021/08/24 09:55:27;;;;;;;0.10;0.10;;;;;;;24.94;41.68;98351.56;5052985;28;20037;-86
2021/08/24 09:58:06;;;;;;;0.20;0.20;;;;;;;24.49;42.82;98367.28;5045701;28;20496;-87
2021/08/24 10:00:55;;;;;;;0.93;0.30;;;;;;;24.44;42.15;98362.16;5050901;28;20036;-89
2021/08/24 10:03:35;;;;;;;0.85;0.20;;;;;;;25.54;40.39;98369.91;5043203;28;20037;-88
2021/08/24 10:06:06;;;;;;;0.20;0.20;;;;;;;24.45;41.84;98378.59;5032957;28;20495;-86
2021/08/24 10:08:44;;;;;;;0.40;0.32;;;;;;;24.09;43.59;98371.22;5033783;28;20045;-88
2021/08/24 10:11:21;;;;;;;0.75;0.20;;;;;;;24.27;42.30;98374.53;5041101;28;20482;-86
2021/08/24 10:13:47;;;;;;;0.40;0.30;;;;;;;24.81;41.65;98375.91;5039926;28;20082;-85
2021/08/24 10:16:26;;;;;;;0.30;0.30;;;;;;;24.03;42.46;98382.13;5047246;28;20041;-88
2021/08/24 10:19:08;;;;;;;0.22;0.20;;;;;;;25.17;40.51;98384.38;5040240;28;20033;-90
2021/08/24 10:21:56;;;;;;;1.35;0.22;;;;;;;25.61;39.38;98395.06;5036677;28;20041;-88
2021/08/24 10:24:28;;;;;;;0.20;0.20;;;;;;;26.88;36.43;98397.47;5039370;28;20060;-87
2021/08/24 10:27:02;;;;;;;0.82;0.38;;;;;;;24.92;40.16;98406.59;5049850;28;20431;-87
2021/08/24 10:29:32;;;;;;;0.20;0.20;;;;;;;24.08;42.02;98411.72;5038523;28;20132;-87
2021/08/24 10:32:04;;;;;;;1.13;0.13;;;;;;;24.24;41.75;98403.44;5044677;28;20097;-89
2021/08/24 10:34:36;;;;;;;0.20;0.20;;;;;;;24.93;40.91;98413.78;5047140;28;20037;-88
2021/08/24 10:37:24;;;;;;;2.05;0.40;;;;;;;26.82;36.64;98412.53;5039003;28;20112;-87
2021/08/24 10:39:54;;;;;;;0.35;0.30;;;;;;;27.91;34.35;98415.69;5034969;28;20033;-88
2021/08/24 10:42:30;;;;;;;0.40;0.40;;;;;;;25.68;38.37;98425.03;5042305;28;20037;-86
2021/08/24 10:45:16;;;;;;;0.40;0.40;;;;;;;25.28;39.66;98429.91;5050808;28;20116;-89
2021/08/24 10:47:42;;;;;;;1.40;0.63;;;;;;;24.69;40.56;98425.03;5038620;28;20080;-88
2021/08/24 10:50:19;;;;;;;0.30;0.30;;;;;;;24.77;40.93;98433.34;5047002;28;20049;-88
2021/08/24 10:52:52;;;;;;;0.68;0.38;;;;;;;25.85;38.72;98433.09;5042861;28;20505;-87
2021/08/24 10:55:30;;;;;;;0.63;0.43;;;;;;;25.36;38.63;98437.78;5049356;28;20078;-88
2021/08/24 10:58:15;;;;;;;0.40;0.40;;;;;;;24.55;40.70;98449.78;5040429;28;20090;-88
2021/08/24 11:01:00;;;;;;;1.38;0.30;;;;;;;24.73;40.56;98448.25;5045650;28;20536;-86
2021/08/24 11:03:54;;;;;;;0.93;0.50;;;;;;;25.13;39.71;98449.09;5046744;28;20029;-89
2021/08/24 11:06:50;;;;;;;2.08;0.45;;;;;;;24.22;41.57;98450.78;5044848;28;20038;-88
2021/08/24 11:09:25;;;;;;;0.77;0.50;;;;;;;23.98;42.13;98447.13;5044475;28;20040;-88
2021/08/24 11:12:12;;;;;;;0.50;0.50;;;;;;;24.25;42.17;98455.53;5036857;28;20074;-89
2021/08/24 11:14:47;;;;;;;1.02;0.50;;;;;;;25.46;39.01;98457.69;5033465;28;20053;-90
2021/08/24 11:17:25;;;;;;;3.30;0.50;;;;;;;24.91;40.32;98458.38;5046982;28;20093;-87
2021/08/24 11:20:06;;;;;;;1.23;0.85;;;;;;;23.79;42.38;98467.44;5044331;28;20044;-85
2021/08/24 11:22:38;;;;;;;;;;;;;;;24.43;40.82;98467.25;5039539;28;20112;-85
2021/08/24 11:25:05;;;;;;;1.77;1.10;;;;;;;24.27;41.67;98467.91;5043448;28;19916;-86
2021/08/24 11:28:06;;;;;;;1.20;1.00;;;;;;;24.59;40.81;98473.78;5039068;28;20086;-87
2021/08/24 11:30:42;;;;;;;;;;;;;;;25.20;39.08;98476.25;5040850;28;20095;-86
2021/08/24 11:33:23;;;;;;;1.67;1.17;;;;;;;24.07;41.70;98488.69;5040534;28;19917;-86
2021/08/24 11:35:56;;;;;;;1.00;0.90;;;;;;;22.65;44.88;98496.00;5040232;28;20794;-85
2021/08/24 11:38:28;;;;;;;2.40;0.95;;;;;;;21.89;47.07;98498.19;5040138;28;20041;-88
2021/08/24 11:41:08;;;;;;;0.98;0.88;;;;;;;22.47;45.19;98497.34;5050256;28;20030;-87
2021/08/24 11:43:47;;;;;;;1.10;0.90;;;;;;;21.60;47.41;98511.50;5040550;28;20102;-86
2021/08/24 11:46:29;;;;;;;1.45;0.80;;;;;;;21.49;47.67;98521.13;5047899;28;20037;-86
2021/08/24 11:49:10;;;;;;;1.95;1.10;;;;;;;22.46;46.20;98520.94;5045057;28;20043;-86
2021/08/24 11:51:38;;;;;;;;;;;;;;;22.95;44.47;98526.09;5049737;28;20122;-89
2021/08/24 11:54:20;;;;;;;3.03;0.90;;;;;;;22.83;44.69;98523.00;5037109;28;19976;-88
2021/08/24 11:56:56;;;;;;;3.08;1.00;;;;;;;23.12;44.21;98535.53;5040375;28;20559;-86